createdAt,value
2022-10-15T00:04:11.448Z,98487.69
2022-10-15T00:09:14.385Z,98483.91
2022-10-15T00:14:17.384Z,98476.34
2022-10-15T00:19:21.652Z,98468.16
2022-10-15T00:24:24.550Z,98468.16
2022-10-15T00:29:27.534Z,98475.94
2022-10-15T00:34:32.476Z,98465.53
2022-10-15T00:39:35.531Z,98462.66
2022-10-15T00:44:56.401Z,98461.44
2022-10-15T00:50:04.960Z,98459.59
2022-10-15T00:55:11.859Z,98457.53
2022-10-15T01:00:16.358Z,98454.56
2022-10-15T01:05:24.653Z,98451.44
2022-10-15T01:10:35.948Z,98448.13
2022-10-15T01:15:47.482Z,98436.38
2022-10-15T01:21:04.257Z,98434.78
2022-10-15T01:26:26.923Z,98442.00
2022-10-15T01:31:40.768Z,98436.84
2022-10-15T01:36:52.244Z,98422.50
2022-10-15T01:42:01.424Z,98432.47
2022-10-15T01:47:09.678Z,98420.88
2022-10-15T01:52:17.959Z,98415.63
2022-10-15T01:57:24.129Z,98423.34
2022-10-15T02:02:28.723Z,98419.63
2022-10-15T02:07:42.047Z,98413.44
2022-10-15T02:12:58.937Z,98412.50
2022-10-15T02:18:10.721Z,98406.19
2022-10-15T02:23:20.409Z,98401.84
2022-10-15T02:28:27.348Z,98390.09
2022-10-15T02:33:33.448Z,98391.25
2022-10-15T02:38:38.743Z,98371.59
2022-10-15T02:43:42.743Z,98369.00
2022-10-15T02:48:49.402Z,98365.72
2022-10-15T02:53:54.196Z,98361.56
2022-10-15T02:58:57.652Z,98364.44
2022-10-15T03:04:02.888Z,98361.25
2022-10-15T03:09:07.632Z,98352.25
2022-10-15T03:14:10.830Z,98358.81
2022-10-15T03:19:16.085Z,98353.09
2022-10-15T03:24:21.066Z,98344.34
2022-10-15T03:29:24.320Z,98336.78
2022-10-15T03:34:35.461Z,98339.75
2022-10-15T03:39:38.867Z,98341.28
2022-10-15T03:44:43.844Z,98341.84
2022-10-15T03:49:51.689Z,98344.44
2022-10-15T03:54:55.951Z,98348.97
2022-10-15T04:00:00.572Z,98342.63
2022-10-15T04:05:24.837Z,98349.63
2022-10-15T04:10:32.801Z,98354.41
2022-10-15T04:15:36.017Z,98355.69
2022-10-15T04:20:46.835Z,98359.00
2022-10-15T04:25:53.953Z,98350.78
2022-10-15T04:30:59.000Z,98359.00
2022-10-15T04:36:05.793Z,98355.53
2022-10-15T04:41:23.464Z,98343.50
2022-10-15T04:46:48.111Z,98351.50
2022-10-15T04:52:18.464Z,98341.16
2022-10-15T04:57:32.026Z,98334.84
2022-10-15T05:02:35.429Z,98341.97
2022-10-15T05:08:01.125Z,98341.63
2022-10-15T05:13:05.417Z,98341.41
2022-10-15T05:18:11.206Z,98348.69
2022-10-15T05:23:23.504Z,98347.25
2022-10-15T05:28:40.837Z,98338.34
2022-10-15T05:33:44.315Z,98344.56
2022-10-15T05:38:50.612Z,98346.16
2022-10-15T05:43:55.965Z,98344.88
2022-10-15T05:49:02.177Z,98353.41
2022-10-15T05:54:09.270Z,98340.50
2022-10-15T05:59:14.395Z,98347.88
2022-10-15T06:04:17.377Z,98348.13
2022-10-15T06:09:21.641Z,98342.09
2022-10-15T06:14:25.001Z,98340.81
2022-10-15T06:19:27.960Z,98349.63
2022-10-15T06:24:32.292Z,98349.38
2022-10-15T06:29:35.193Z,98363.81
2022-10-15T06:34:38.206Z,98364.13
2022-10-15T06:39:42.479Z,98378.16
2022-10-15T06:44:45.387Z,98381.72
2022-10-15T06:49:52.092Z,98389.00
2022-10-15T06:54:56.404Z,98383.47
2022-10-15T06:59:59.293Z,98382.72
2022-10-15T07:05:02.313Z,98395.22
2022-10-15T07:10:07.606Z,98389.97
2022-10-15T07:15:11.728Z,98393.00
2022-10-15T07:20:14.822Z,98402.13
2022-10-15T07:25:19.113Z,98395.72
2022-10-15T07:30:22.742Z,98387.41
2022-10-15T07:35:28.922Z,98382.44
2022-10-15T07:40:33.258Z,98391.41
2022-10-15T07:45:36.777Z,98383.22
2022-10-15T07:50:40.385Z,98387.50
2022-10-15T07:55:46.572Z,98393.34
2022-10-15T08:00:49.513Z,98400.16
2022-10-15T08:05:53.321Z,98420.00
2022-10-15T08:10:59.166Z,98419.22
2022-10-15T08:16:02.090Z,98424.44
2022-10-15T08:21:06.234Z,98421.09
2022-10-15T08:26:10.505Z,98420.88
2022-10-15T08:31:13.871Z,98421.94
2022-10-15T08:36:16.750Z,98422.00
2022-10-15T08:41:29.001Z,98418.78
2022-10-15T08:46:37.830Z,98435.22
2022-10-15T08:51:45.866Z,98441.28
2022-10-15T08:56:54.759Z,98442.09
2022-10-15T09:02:02.307Z,98432.84
2022-10-15T09:07:12.192Z,98442.63
2022-10-15T09:12:37.763Z,98440.25
2022-10-15T09:17:42.906Z,98446.28
2022-10-15T09:22:52.050Z,98445.53
2022-10-15T09:27:57.947Z,98455.53
2022-10-15T09:33:08.033Z,98456.13
2022-10-15T09:38:30.095Z,98466.16
2022-10-15T09:43:37.487Z,98475.94
2022-10-15T09:48:45.855Z,98476.75
2022-10-15T09:53:55.880Z,98476.22
2022-10-15T09:59:03.661Z,98478.59
2022-10-15T10:04:15.032Z,98481.41
2022-10-15T10:09:21.279Z,98487.97
2022-10-15T10:14:30.098Z,98484.91
2022-10-15T10:19:33.105Z,98493.94
2022-10-15T10:24:36.548Z,98501.38
2022-10-15T10:29:52.612Z,98481.28
2022-10-15T10:34:55.985Z,98489.81
2022-10-15T10:40:01.575Z,98493.03
2022-10-15T10:45:22.179Z,98490.19
2022-10-15T10:50:31.482Z,98493.56
2022-10-15T10:55:40.090Z,98499.53
2022-10-15T11:00:47.345Z,98490.59
2022-10-15T11:05:55.921Z,98505.22
2022-10-15T11:11:08.063Z,98494.56
2022-10-15T11:16:20.806Z,98494.22
2022-10-15T11:21:41.581Z,98498.38
2022-10-15T11:27:10.824Z,98495.41
2022-10-15T11:32:42.125Z,98497.16
2022-10-15T11:38:04.212Z,98492.25
2022-10-15T11:43:20.336Z,98489.59
2022-10-15T11:48:36.860Z,98491.81
2022-10-15T11:53:59.648Z,98500.47
2022-10-15T11:59:12.471Z,98494.34
2022-10-15T12:04:21.266Z,98489.53
2022-10-15T12:09:29.713Z,98486.88
2022-10-15T12:14:39.487Z,98501.66
2022-10-15T12:19:50.035Z,98497.50
2022-10-15T12:24:56.978Z,98500.69
2022-10-15T12:30:20.891Z,98500.25
2022-10-15T12:35:34.734Z,98502.44
2022-10-15T12:40:40.796Z,98501.03
2022-10-15T12:45:51.868Z,98511.53
2022-10-15T12:51:40.007Z,98499.25
2022-10-15T12:56:43.075Z,98498.66
2022-10-15T13:01:53.371Z,98502.38
2022-10-15T13:07:04.993Z,98491.97
2022-10-15T13:12:19.049Z,98480.69
2022-10-15T13:17:23.556Z,98474.03
2022-10-15T13:22:29.730Z,98475.25
2022-10-15T13:27:35.649Z,98468.59
2022-10-15T13:32:45.406Z,98470.00
2022-10-15T13:37:51.226Z,98476.13
2022-10-15T13:43:20.558Z,98481.25
2022-10-15T13:48:25.118Z,98487.34
2022-10-15T13:53:31.947Z,98474.28
2022-10-15T13:58:39.465Z,98485.84
2022-10-15T14:03:49.790Z,98484.56
2022-10-15T14:08:55.535Z,98489.66
2022-10-15T14:14:00.515Z,98493.47
2022-10-15T14:19:12.785Z,98495.13
2022-10-15T14:24:18.118Z,98503.84
2022-10-15T14:29:28.752Z,98507.75
2022-10-15T14:34:38.491Z,98509.91
2022-10-15T14:39:41.597Z,98509.78
2022-10-15T14:44:48.332Z,98509.28
2022-10-15T14:49:55.114Z,98512.84
2022-10-15T14:55:03.875Z,98520.53
2022-10-15T15:00:21.980Z,98516.94
2022-10-15T15:05:26.721Z,98514.03
2022-10-15T15:10:29.738Z,98512.84
2022-10-15T15:15:34.064Z,98510.50
2022-10-15T15:20:37.176Z,98512.94
2022-10-15T15:25:41.221Z,98517.28
2022-10-15T15:30:46.461Z,98525.06
2022-10-15T15:35:51.724Z,98530.56
2022-10-15T15:40:54.673Z,98535.97
2022-10-15T15:45:59.070Z,98545.59
2022-10-15T15:51:05.288Z,98561.78
2022-10-15T15:56:08.406Z,98562.34
2022-10-15T16:01:12.847Z,98562.63
2022-10-15T16:06:15.748Z,98569.03
2022-10-15T16:11:18.671Z,98565.56
2022-10-15T16:16:23.015Z,98561.09
2022-10-15T16:21:26.801Z,98568.56
2022-10-15T16:26:29.720Z,98565.94
2022-10-15T16:31:36.850Z,98579.19
2022-10-15T16:36:40.080Z,98588.75
2022-10-15T16:41:43.005Z,98596.16
2022-10-15T16:46:47.260Z,98594.03
2022-10-15T16:51:50.225Z,98595.38
2022-10-15T16:56:53.641Z,98613.91
2022-10-15T17:01:57.970Z,98606.75
2022-10-15T17:07:01.004Z,98613.13
2022-10-15T17:12:04.194Z,98616.28
2022-10-15T17:17:08.764Z,98621.84
2022-10-15T17:22:11.691Z,98621.00
2022-10-15T17:27:14.644Z,98638.81
2022-10-15T17:32:19.135Z,98644.81
2022-10-15T17:37:22.625Z,98654.84
2022-10-15T17:42:25.900Z,98651.66
2022-10-15T17:47:31.020Z,98637.38
2022-10-15T17:52:34.641Z,98645.34
2022-10-15T17:57:37.749Z,98645.06
2022-10-15T18:02:42.129Z,98652.69
2022-10-15T18:07:45.109Z,98665.88
2022-10-15T18:12:48.085Z,98677.91
2022-10-15T18:17:52.383Z,98675.72
2022-10-15T18:22:55.327Z,98674.09
2022-10-15T18:27:58.282Z,98675.69
2022-10-15T18:33:02.560Z,98681.84
2022-10-15T18:38:05.496Z,98679.88
2022-10-15T18:43:08.409Z,98692.19
2022-10-15T18:48:12.687Z,98692.41
2022-10-15T18:53:15.600Z,98704.78
2022-10-15T18:58:18.567Z,98709.34
2022-10-15T19:03:22.840Z,98714.97
2022-10-15T19:08:26.340Z,98719.00
2022-10-15T19:13:29.252Z,98709.69
2022-10-15T19:18:34.368Z,98705.69
2022-10-15T19:23:37.349Z,98705.28
2022-10-15T19:28:40.541Z,98704.84
2022-10-15T19:33:45.012Z,98719.56
2022-10-15T19:38:47.909Z,98704.13
2022-10-15T19:43:52.431Z,98714.38
2022-10-15T19:48:57.887Z,98725.13
2022-10-15T19:54:01.375Z,98715.44
2022-10-15T19:59:07.629Z,98724.41
2022-10-15T20:04:12.076Z,98735.69
2022-10-15T20:09:15.003Z,98732.41
2022-10-15T20:14:17.931Z,98732.16
2022-10-15T20:19:23.053Z,98744.88
2022-10-15T20:24:27.093Z,98757.41
2022-10-15T20:29:30.091Z,98750.44
2022-10-15T20:34:35.156Z,98764.91
2022-10-15T20:39:38.067Z,98766.91
2022-10-15T20:44:41.015Z,98787.50
2022-10-15T20:49:49.370Z,98791.84
2022-10-15T20:54:52.498Z,98780.28
2022-10-15T20:59:55.415Z,98809.38
2022-10-15T21:04:59.759Z,98801.19
2022-10-15T21:10:02.835Z,98806.22
2022-10-15T21:15:06.577Z,98812.59
2022-10-15T21:20:11.624Z,98800.38
2022-10-15T21:25:14.540Z,98795.44
2022-10-15T21:30:17.695Z,98811.97
2022-10-15T21:35:22.073Z,98813.25
2022-10-15T21:40:24.977Z,98815.34
2022-10-15T21:45:27.973Z,98816.94
2022-10-15T21:50:32.223Z,98807.28
2022-10-15T21:55:35.101Z,98818.91
2022-10-15T22:00:38.007Z,98817.28
2022-10-15T22:05:42.275Z,98828.81
2022-10-15T22:10:45.528Z,98827.66
2022-10-15T22:15:48.486Z,98828.44
2022-10-15T22:20:52.773Z,98828.09
2022-10-15T22:25:59.265Z,98829.97
2022-10-15T22:31:04.481Z,98837.72
2022-10-15T22:36:17.214Z,98835.31
2022-10-15T22:41:20.356Z,98841.13
2022-10-15T22:46:23.282Z,98851.56
2022-10-15T22:51:27.703Z,98859.09
2022-10-15T22:56:31.553Z,98861.16
2022-10-15T23:01:35.892Z,98874.91
2022-10-15T23:06:40.475Z,98871.72
2022-10-15T23:11:43.433Z,98863.09
2022-10-15T23:16:48.975Z,98862.09
2022-10-15T23:21:55.987Z,98851.47
2022-10-15T23:26:58.864Z,98850.44
2022-10-15T23:32:01.859Z,98853.00
2022-10-15T23:37:06.196Z,98862.44
2022-10-15T23:42:09.118Z,98863.03
2022-10-15T23:47:12.058Z,98865.19
2022-10-15T23:52:16.331Z,98860.41
2022-10-15T23:57:19.221Z,98861.56
